createdAt,value
2022-11-22T00:04:59.110Z,4.18
2022-11-22T00:10:02.308Z,4.08
2022-11-22T00:15:06.238Z,3.98
2022-11-22T00:20:11.980Z,3.89
2022-11-22T00:25:15.166Z,3.81
2022-11-22T00:30:18.236Z,3.68
2022-11-22T00:35:21.168Z,3.57
2022-11-22T00:40:24.085Z,3.49
2022-11-22T00:45:27.055Z,3.39
2022-11-22T00:50:30.387Z,3.48
2022-11-22T00:55:33.357Z,3.51
2022-11-22T01:00:36.341Z,3.49
2022-11-22T01:05:39.857Z,3.46
2022-11-22T01:10:43.019Z,3.40
2022-11-22T01:15:45.955Z,3.39
2022-11-22T01:20:48.908Z,3.28
2022-11-22T01:25:51.819Z,3.19
2022-11-22T01:30:55.227Z,3.06
2022-11-22T01:35:58.649Z,3.05
2022-11-22T01:41:01.896Z,3.06
2022-11-22T01:46:10.048Z,3.04
2022-11-22T01:51:40.573Z,3.00
2022-11-22T01:56:48.685Z,2.96
2022-11-22T02:01:52.533Z,2.95
2022-11-22T02:07:13.457Z,2.94
2022-11-22T02:12:19.416Z,2.99
2022-11-22T02:17:26.316Z,2.97
2022-11-22T02:22:53.933Z,2.90
2022-11-22T02:27:56.937Z,2.88
2022-11-22T02:32:59.868Z,2.85
2022-11-22T02:38:13.325Z,2.82
2022-11-22T02:43:22.185Z,2.86
2022-11-22T02:48:25.207Z,2.83
2022-11-22T02:53:31.361Z,2.79
2022-11-22T02:58:34.483Z,2.75
2022-11-22T03:03:37.554Z,2.74
2022-11-22T03:08:40.581Z,2.79
2022-11-22T03:13:43.783Z,2.84
2022-11-22T03:18:46.857Z,2.83
2022-11-22T03:23:49.756Z,2.82
2022-11-22T03:28:53.111Z,2.80
2022-11-22T03:33:56.683Z,2.77
2022-11-22T03:38:59.659Z,2.75
2022-11-22T03:44:02.623Z,2.74
2022-11-22T03:49:05.711Z,2.76
2022-11-22T03:54:08.683Z,2.79
2022-11-22T03:59:11.725Z,2.83
2022-11-22T04:04:14.992Z,2.90
2022-11-22T04:09:18.073Z,3.00
2022-11-22T04:14:40.228Z,3.10
2022-11-22T04:20:03.288Z,3.12
2022-11-22T04:25:15.255Z,3.14
2022-11-22T04:30:20.734Z,3.14
2022-11-22T04:35:24.090Z,3.12
2022-11-22T04:40:27.055Z,3.10
2022-11-22T04:45:29.992Z,3.08
2022-11-22T04:50:51.622Z,3.04
2022-11-22T04:55:55.028Z,2.98
2022-11-22T05:00:58.097Z,2.96
2022-11-22T05:06:03.013Z,3.01
2022-11-22T05:11:06.191Z,3.09
2022-11-22T05:16:12.134Z,3.17
2022-11-22T05:21:15.193Z,3.22
2022-11-22T05:26:19.099Z,3.14
2022-11-22T05:31:23.658Z,3.08
2022-11-22T05:36:26.759Z,3.00
2022-11-22T05:41:29.779Z,2.92
2022-11-22T05:46:32.713Z,2.89
2022-11-22T05:51:35.647Z,2.84
2022-11-22T05:56:38.710Z,2.90
2022-11-22T06:01:41.802Z,2.89
2022-11-22T06:06:47.187Z,2.89
2022-11-22T06:11:50.152Z,2.90
2022-11-22T06:16:53.401Z,2.94
2022-11-22T06:21:56.318Z,2.96
2022-11-22T06:26:59.321Z,2.92
2022-11-22T06:32:03.952Z,2.87
2022-11-22T06:37:07.452Z,2.84
2022-11-22T06:42:10.441Z,2.81
2022-11-22T06:47:13.504Z,2.85
2022-11-22T06:52:16.642Z,2.83
2022-11-22T06:57:20.710Z,2.84
2022-11-22T07:02:23.715Z,2.88
2022-11-22T07:07:26.953Z,2.91
2022-11-22T07:12:30.067Z,2.93
2022-11-22T07:17:33.227Z,2.95
2022-11-22T07:22:36.202Z,3.05
2022-11-22T07:27:39.155Z,3.03
2022-11-22T07:32:46.628Z,3.01
2022-11-22T07:37:49.650Z,3.03
2022-11-22T07:42:58.169Z,3.06
2022-11-22T07:48:02.347Z,3.11
2022-11-22T07:53:05.359Z,3.16
2022-11-22T07:58:08.367Z,3.25
2022-11-22T08:03:14.413Z,3.46
2022-11-22T08:08:20.501Z,3.60
2022-11-22T08:13:24.451Z,3.71
2022-11-22T08:18:27.606Z,3.83
2022-11-22T08:23:30.553Z,3.94
2022-11-22T08:28:33.648Z,3.99
2022-11-22T08:33:37.001Z,4.07
2022-11-22T08:38:40.183Z,4.16
2022-11-22T08:43:43.340Z,4.29
2022-11-22T08:48:46.989Z,4.35
2022-11-22T08:53:50.291Z,4.40
2022-11-22T08:58:54.445Z,4.50
2022-11-22T09:03:57.586Z,4.65
2022-11-22T09:09:29.961Z,4.83
2022-11-22T09:14:24.129Z,5.00
2022-11-22T09:19:27.280Z,5.14
2022-11-22T09:24:30.272Z,5.25
2022-11-22T09:29:33.497Z,5.37
2022-11-22T09:34:36.690Z,5.48
2022-11-22T09:39:42.585Z,5.58
2022-11-22T09:44:55.372Z,5.73
2022-11-22T09:50:08.411Z,5.95
2022-11-22T09:55:24.148Z,6.12
2022-11-22T10:00:28.779Z,6.22
2022-11-22T10:05:59.430Z,6.34
2022-11-22T10:11:07.101Z,6.45
2022-11-22T10:16:31.625Z,6.57
2022-11-22T10:21:34.812Z,6.73
2022-11-22T10:26:39.526Z,6.93
2022-11-22T10:32:07.644Z,7.06
2022-11-22T10:37:25.165Z,7.13
2022-11-22T10:42:36.654Z,7.18
2022-11-22T10:47:57.579Z,7.13
2022-11-22T10:53:11.171Z,7.06
2022-11-22T10:58:38.358Z,7.03
2022-11-22T11:03:45.291Z,7.00
2022-11-22T11:14:37.877Z,7.05
2022-11-22T11:19:43.694Z,7.25
2022-11-22T11:24:46.825Z,7.17
2022-11-22T11:29:54.175Z,7.13
2022-11-22T11:35:08.000Z,7.15
2022-11-22T11:40:28.518Z,7.19
2022-11-22T11:45:32.945Z,7.22
2022-11-22T11:50:36.241Z,7.37
2022-11-22T11:55:39.259Z,7.49
2022-11-22T12:00:42.842Z,7.66
2022-11-22T12:05:46.020Z,7.78
2022-11-22T12:11:11.692Z,7.81
2022-11-22T12:16:41.427Z,7.89
2022-11-22T12:22:02.202Z,8.02
2022-11-22T12:27:05.841Z,8.13
2022-11-22T12:32:14.735Z,8.23
2022-11-22T12:37:24.081Z,8.32
2022-11-22T12:42:39.808Z,8.38
2022-11-22T12:47:46.672Z,8.54
2022-11-22T12:55:02.331Z,9.38
2022-11-22T13:00:18.294Z,9.23
2022-11-22T13:05:26.355Z,9.00
2022-11-22T13:10:44.967Z,8.75
2022-11-22T13:15:51.618Z,8.59
2022-11-22T13:21:01.913Z,8.43
2022-11-22T13:26:21.948Z,8.30
2022-11-22T13:31:26.370Z,8.21
2022-11-22T13:36:29.857Z,8.12
2022-11-22T13:42:14.127Z,8.02
2022-11-22T13:47:17.694Z,7.93
2022-11-22T13:52:21.153Z,7.91
2022-11-22T13:57:35.140Z,7.83
2022-11-22T14:03:06.627Z,7.68
2022-11-22T14:08:42.622Z,7.50
2022-11-22T14:14:04.804Z,7.31
2022-11-22T14:19:23.443Z,7.15
2022-11-22T14:24:47.603Z,6.96
2022-11-22T14:30:07.458Z,6.76
2022-11-22T14:35:17.706Z,6.59
2022-11-22T14:40:48.816Z,6.46
2022-11-22T14:45:55.620Z,6.29
2022-11-22T14:51:15.500Z,6.24
2022-11-22T14:57:08.520Z,6.15
2022-11-22T15:02:39.021Z,6.08
2022-11-22T15:09:12.682Z,6.06
2022-11-22T15:13:35.152Z,6.02
2022-11-22T15:57:58.936Z,5.60
2022-11-22T16:03:06.983Z,5.56
2022-11-22T16:08:14.474Z,5.56
2022-11-22T16:13:20.965Z,5.54
2022-11-22T16:18:28.702Z,5.56
2022-11-22T16:23:34.292Z,5.58
2022-11-22T16:28:38.437Z,5.62
2022-11-22T16:33:42.312Z,5.68
2022-11-22T16:38:46.948Z,5.71
2022-11-22T16:43:54.959Z,5.68
2022-11-22T16:48:58.694Z,5.62
2022-11-22T16:54:11.517Z,5.55
2022-11-22T16:59:15.686Z,5.50
2022-11-22T17:04:25.573Z,5.47
2022-11-22T17:09:34.601Z,5.47
2022-11-22T17:14:39.748Z,5.46
2022-11-22T17:19:54.900Z,5.47
2022-11-22T17:25:01.321Z,5.47
2022-11-22T17:30:05.917Z,5.56
2022-11-22T17:35:10.828Z,5.62
2022-11-22T17:40:15.506Z,5.66
2022-11-22T17:45:19.398Z,5.68
2022-11-22T17:50:26.547Z,5.63
2022-11-22T17:55:42.660Z,5.55
2022-11-22T18:01:03.564Z,5.44
2022-11-22T18:06:17.841Z,5.35
2022-11-22T18:16:38.737Z,5.27
2022-11-22T18:21:46.004Z,5.24
2022-11-22T18:26:49.947Z,5.16
2022-11-22T18:31:54.466Z,5.11
2022-11-22T18:42:24.574Z,4.99
2022-11-22T18:47:28.047Z,4.93
2022-11-22T18:52:34.583Z,4.88
2022-11-22T18:57:38.087Z,4.86
2022-11-22T19:02:41.622Z,4.89
2022-11-22T19:07:51.933Z,4.89
2022-11-22T19:12:55.737Z,4.88
2022-11-22T19:18:02.461Z,4.85
2022-11-22T19:23:05.910Z,4.78
2022-11-22T19:28:09.492Z,4.71
2022-11-22T19:33:13.415Z,4.66
2022-11-22T19:38:16.918Z,4.61
2022-11-22T19:43:21.418Z,4.62
2022-11-22T19:48:25.337Z,4.68
2022-11-22T19:53:31.821Z,4.63
2022-11-22T19:58:35.747Z,4.53
2022-11-22T20:03:41.351Z,4.43
2022-11-22T20:08:44.835Z,4.49
2022-11-22T20:13:50.188Z,4.42
2022-11-22T20:18:57.694Z,4.37
2022-11-22T20:24:01.242Z,4.35
2022-11-22T20:29:07.284Z,4.32
2022-11-22T20:34:10.522Z,4.28
2022-11-22T20:39:13.587Z,4.21
2022-11-22T20:44:17.620Z,4.12
2022-11-22T20:49:25.189Z,4.06
2022-11-22T20:54:28.773Z,4.01
2022-11-22T20:59:36.502Z,3.96
2022-11-22T21:04:40.488Z,3.92
2022-11-22T21:09:44.230Z,3.87
2022-11-22T21:14:52.528Z,3.82
2022-11-22T21:20:06.589Z,3.77
2022-11-22T21:25:10.304Z,3.71
2022-11-22T21:30:15.031Z,3.70
2022-11-22T21:35:21.601Z,3.73
2022-11-22T21:40:28.220Z,3.77
2022-11-22T21:45:32.481Z,3.79
2022-11-22T21:50:36.612Z,3.77
2022-11-22T21:55:53.209Z,3.73
2022-11-22T22:01:01.691Z,3.67
2022-11-22T22:06:07.794Z,3.59
2022-11-22T22:11:11.985Z,3.51
2022-11-22T22:16:19.263Z,3.44
2022-11-22T22:21:22.799Z,3.39
2022-11-22T22:26:26.480Z,3.31
2022-11-22T22:31:30.041Z,3.27
2022-11-22T22:36:34.856Z,3.25
2022-11-22T22:41:41.309Z,3.22
2022-11-22T22:46:47.990Z,3.27
2022-11-22T22:51:53.352Z,3.31
2022-11-22T22:56:57.422Z,3.33
2022-11-22T23:02:01.095Z,3.31
2022-11-22T23:07:07.907Z,3.27
2022-11-22T23:12:11.912Z,3.21
2022-11-22T23:17:18.736Z,3.17
2022-11-22T23:22:25.932Z,3.11
2022-11-22T23:27:32.740Z,3.05
2022-11-22T23:38:00.235Z,3.01
2022-11-22T23:43:03.893Z,2.99
2022-11-22T23:48:07.753Z,3.00
2022-11-22T23:53:11.432Z,3.00
2022-11-22T23:58:15.115Z,3.05
